sensor_id;sensor_type;location;lat;lon;timestamp;temperature;humidity
12123;DHT22;6125;59.628;17.852;2022-10-16T00:01:48;12.70;99.90
12123;DHT22;6125;59.628;17.852;2022-10-16T00:04:20;12.70;99.90
12123;DHT22;6125;59.628;17.852;2022-10-16T00:06:48;12.60;99.90
12123;DHT22;6125;59.628;17.852;2022-10-16T00:09:19;12.60;99.90
12123;DHT22;6125;59.628;17.852;2022-10-16T00:11:47;12.60;99.90
12123;DHT22;6125;59.628;17.852;2022-10-16T00:14:23;12.60;99.90
12123;DHT22;6125;59.628;17.852;2022-10-16T00:16:50;12.60;99.90
12123;DHT22;6125;59.628;17.852;2022-10-16T00:19:17;12.60;99.90
12123;DHT22;6125;59.628;17.852;2022-10-16T00:21:44;12.60;99.90
12123;DHT22;6125;59.628;17.852;2022-10-16T00:24:14;12.60;99.90
12123;DHT22;6125;59.628;17.852;2022-10-16T00:26:43;12.60;99.90
12123;DHT22;6125;59.628;17.852;2022-10-16T00:29:11;12.60;99.90
12123;DHT22;6125;59.628;17.852;2022-10-16T00:31:40;12.60;99.90
12123;DHT22;6125;59.628;17.852;2022-10-16T00:34:10;12.70;99.90
12123;DHT22;6125;59.628;17.852;2022-10-16T00:36:40;12.70;99.90
12123;DHT22;6125;59.628;17.852;2022-10-16T00:39:09;12.70;99.90
12123;DHT22;6125;59.628;17.852;2022-10-16T00:41:38;12.70;99.90
12123;DHT22;6125;59.628;17.852;2022-10-16T00:47:07;12.60;99.90
12123;DHT22;6125;59.628;17.852;2022-10-16T00:49:34;12.60;99.90
12123;DHT22;6125;59.628;17.852;2022-10-16T00:52:02;12.60;99.90
12123;DHT22;6125;59.628;17.852;2022-10-16T00:54:30;12.50;99.90
12123;DHT22;6125;59.628;17.852;2022-10-16T00:57:04;12.50;99.90
12123;DHT22;6125;59.628;17.852;2022-10-16T00:59:33;12.50;99.90
12123;DHT22;6125;59.628;17.852;2022-10-16T01:02:01;12.50;99.90
12123;DHT22;6125;59.628;17.852;2022-10-16T01:04:35;12.50;99.90
12123;DHT22;6125;59.628;17.852;2022-10-16T01:07:11;12.50;99.90
12123;DHT22;6125;59.628;17.852;2022-10-16T01:09:47;12.40;99.90
12123;DHT22;6125;59.628;17.852;2022-10-16T01:12:27;12.50;99.90
12123;DHT22;6125;59.628;17.852;2022-10-16T01:15:02;12.40;99.90
12123;DHT22;6125;59.628;17.852;2022-10-16T01:17:41;12.40;99.90
12123;DHT22;6125;59.628;17.852;2022-10-16T01:20:14;12.40;99.90
12123;DHT22;6125;59.628;17.852;2022-10-16T01:25:46;12.40;99.90
12123;DHT22;6125;59.628;17.852;2022-10-16T01:28:18;12.30;99.90
12123;DHT22;6125;59.628;17.852;2022-10-16T01:30:56;12.30;99.90
12123;DHT22;6125;59.628;17.852;2022-10-16T01:33:30;12.30;99.90
12123;DHT22;6125;59.628;17.852;2022-10-16T01:36:07;12.30;99.90
12123;DHT22;6125;59.628;17.852;2022-10-16T01:38:38;12.40;99.90
12123;DHT22;6125;59.628;17.852;2022-10-16T01:41:09;12.40;99.90
12123;DHT22;6125;59.628;17.852;2022-10-16T01:43:42;12.40;99.90
12123;DHT22;6125;59.628;17.852;2022-10-16T01:46:17;12.40;99.90
12123;DHT22;6125;59.628;17.852;2022-10-16T01:48:45;12.40;99.90
12123;DHT22;6125;59.628;17.852;2022-10-16T01:51:14;12.40;99.90
12123;DHT22;6125;59.628;17.852;2022-10-16T01:53:44;12.40;99.90
12123;DHT22;6125;59.628;17.852;2022-10-16T01:56:13;12.40;99.90
12123;DHT22;6125;59.628;17.852;2022-10-16T01:58:48;12.40;99.90
12123;DHT22;6125;59.628;17.852;2022-10-16T02:01:19;12.40;99.90
12123;DHT22;6125;59.628;17.852;2022-10-16T02:03:49;12.40;99.90
12123;DHT22;6125;59.628;17.852;2022-10-16T02:06:18;12.40;99.90
12123;DHT22;6125;59.628;17.852;2022-10-16T02:08:46;12.40;99.90
12123;DHT22;6125;59.628;17.852;2022-10-16T02:11:13;12.40;99.90
12123;DHT22;6125;59.628;17.852;2022-10-16T02:13:46;12.40;99.90
12123;DHT22;6125;59.628;17.852;2022-10-16T02:16:17;12.40;99.90
12123;DHT22;6125;59.628;17.852;2022-10-16T02:18:49;12.40;99.90
12123;DHT22;6125;59.628;17.852;2022-10-16T02:21:22;12.40;99.90
12123;DHT22;6125;59.628;17.852;2022-10-16T02:23:57;12.40;99.90
12123;DHT22;6125;59.628;17.852;2022-10-16T02:26:31;12.40;99.90
12123;DHT22;6125;59.628;17.852;2022-10-16T02:29:07;12.40;99.90
12123;DHT22;6125;59.628;17.852;2022-10-16T02:31:40;12.40;99.90
12123;DHT22;6125;59.628;17.852;2022-10-16T02:34:08;12.40;99.90
12123;DHT22;6125;59.628;17.852;2022-10-16T02:36:42;12.40;99.90
12123;DHT22;6125;59.628;17.852;2022-10-16T02:39:18;12.40;99.90
12123;DHT22;6125;59.628;17.852;2022-10-16T02:41:55;12.40;99.90
12123;DHT22;6125;59.628;17.852;2022-10-16T02:44:28;12.40;99.90
12123;DHT22;6125;59.628;17.852;2022-10-16T02:46:55;12.40;99.90
12123;DHT22;6125;59.628;17.852;2022-10-16T02:49:27;12.40;99.90
12123;DHT22;6125;59.628;17.852;2022-10-16T02:51:55;12.40;99.90
12123;DHT22;6125;59.628;17.852;2022-10-16T02:54:24;12.40;99.90
12123;DHT22;6125;59.628;17.852;2022-10-16T02:56:51;12.40;99.90
12123;DHT22;6125;59.628;17.852;2022-10-16T02:59:19;12.40;99.90
12123;DHT22;6125;59.628;17.852;2022-10-16T03:01:48;12.40;99.90
12123;DHT22;6125;59.628;17.852;2022-10-16T03:04:15;12.40;99.90
12123;DHT22;6125;59.628;17.852;2022-10-16T03:06:42;12.40;99.90
12123;DHT22;6125;59.628;17.852;2022-10-16T03:09:09;12.40;99.90
12123;DHT22;6125;59.628;17.852;2022-10-16T03:11:38;12.40;99.90
12123;DHT22;6125;59.628;17.852;2022-10-16T03:14:05;12.40;99.90
12123;DHT22;6125;59.628;17.852;2022-10-16T03:16:37;12.40;99.90
12123;DHT22;6125;59.628;17.852;2022-10-16T03:19:10;12.40;99.90
12123;DHT22;6125;59.628;17.852;2022-10-16T03:21:37;12.40;99.90
12123;DHT22;6125;59.628;17.852;2022-10-16T03:24:04;12.40;99.90
12123;DHT22;6125;59.628;17.852;2022-10-16T03:26:34;12.40;99.90
12123;DHT22;6125;59.628;17.852;2022-10-16T03:29:06;12.30;99.90
12123;DHT22;6125;59.628;17.852;2022-10-16T03:31:33;12.30;99.90
12123;DHT22;6125;59.628;17.852;2022-10-16T03:34:02;12.30;99.90
12123;DHT22;6125;59.628;17.852;2022-10-16T03:36:30;12.30;99.90
12123;DHT22;6125;59.628;17.852;2022-10-16T03:38:57;12.30;99.90
12123;DHT22;6125;59.628;17.852;2022-10-16T03:41:24;12.30;99.90
12123;DHT22;6125;59.628;17.852;2022-10-16T03:43:54;12.30;99.90
12123;DHT22;6125;59.628;17.852;2022-10-16T03:46:24;12.30;99.90
12123;DHT22;6125;59.628;17.852;2022-10-16T03:48:51;12.30;99.90
12123;DHT22;6125;59.628;17.852;2022-10-16T03:51:18;12.30;99.90
12123;DHT22;6125;59.628;17.852;2022-10-16T03:53:47;12.30;99.90
12123;DHT22;6125;59.628;17.852;2022-10-16T03:56:23;12.30;99.90
12123;DHT22;6125;59.628;17.852;2022-10-16T03:58:53;12.30;99.90
12123;DHT22;6125;59.628;17.852;2022-10-16T04:01:23;12.30;99.90
12123;DHT22;6125;59.628;17.852;2022-10-16T04:03:50;12.30;99.90
12123;DHT22;6125;59.628;17.852;2022-10-16T04:06:17;12.30;99.90
12123;DHT22;6125;59.628;17.852;2022-10-16T04:08:45;12.30;99.90
12123;DHT22;6125;59.628;17.852;2022-10-16T04:11:15;12.30;99.90
12123;DHT22;6125;59.628;17.852;2022-10-16T04:13:42;12.30;99.90
12123;DHT22;6125;59.628;17.852;2022-10-16T04:16:11;12.30;99.90
12123;DHT22;6125;59.628;17.852;2022-10-16T04:18:38;12.30;99.90
12123;DHT22;6125;59.628;17.852;2022-10-16T04:21:08;12.30;99.90
12123;DHT22;6125;59.628;17.852;2022-10-16T04:23:37;12.30;99.90
12123;DHT22;6125;59.628;17.852;2022-10-16T04:26:06;12.30;99.90
12123;DHT22;6125;59.628;17.852;2022-10-16T04:28:38;12.30;99.90
12123;DHT22;6125;59.628;17.852;2022-10-16T04:31:09;12.30;99.90
12123;DHT22;6125;59.628;17.852;2022-10-16T04:33:36;12.30;99.90
12123;DHT22;6125;59.628;17.852;2022-10-16T04:36:04;12.30;99.90
12123;DHT22;6125;59.628;17.852;2022-10-16T04:38:31;12.30;99.90
12123;DHT22;6125;59.628;17.852;2022-10-16T04:40:58;12.30;99.90
12123;DHT22;6125;59.628;17.852;2022-10-16T04:43:26;12.30;99.90
12123;DHT22;6125;59.628;17.852;2022-10-16T04:45:53;12.30;99.90
12123;DHT22;6125;59.628;17.852;2022-10-16T04:48:21;12.30;99.90
12123;DHT22;6125;59.628;17.852;2022-10-16T04:50:48;12.30;99.90
12123;DHT22;6125;59.628;17.852;2022-10-16T04:53:15;12.30;99.90
12123;DHT22;6125;59.628;17.852;2022-10-16T04:55:43;12.30;99.90
12123;DHT22;6125;59.628;17.852;2022-10-16T04:58:10;12.30;99.90
12123;DHT22;6125;59.628;17.852;2022-10-16T05:00:40;12.30;99.90
12123;DHT22;6125;59.628;17.852;2022-10-16T05:03:10;12.20;99.90
12123;DHT22;6125;59.628;17.852;2022-10-16T05:05:42;12.30;99.90
12123;DHT22;6125;59.628;17.852;2022-10-16T05:08:22;12.30;99.90
12123;DHT22;6125;59.628;17.852;2022-10-16T05:10:58;12.30;99.90
12123;DHT22;6125;59.628;17.852;2022-10-16T05:13:26;12.30;99.90
12123;DHT22;6125;59.628;17.852;2022-10-16T05:15:54;12.30;99.90
12123;DHT22;6125;59.628;17.852;2022-10-16T05:18:21;12.30;99.90
12123;DHT22;6125;59.628;17.852;2022-10-16T05:20:51;12.30;99.90
12123;DHT22;6125;59.628;17.852;2022-10-16T05:23:18;12.30;99.90
12123;DHT22;6125;59.628;17.852;2022-10-16T05:25:52;12.30;99.90
12123;DHT22;6125;59.628;17.852;2022-10-16T05:28:20;12.30;99.90
12123;DHT22;6125;59.628;17.852;2022-10-16T05:30:47;12.30;99.90
12123;DHT22;6125;59.628;17.852;2022-10-16T05:33:16;12.30;99.90
12123;DHT22;6125;59.628;17.852;2022-10-16T05:35:43;12.30;99.90
12123;DHT22;6125;59.628;17.852;2022-10-16T05:38:10;12.30;99.90
12123;DHT22;6125;59.628;17.852;2022-10-16T05:40:38;12.30;99.90
12123;DHT22;6125;59.628;17.852;2022-10-16T05:43:09;12.30;99.90
12123;DHT22;6125;59.628;17.852;2022-10-16T05:45:38;12.30;99.90
12123;DHT22;6125;59.628;17.852;2022-10-16T05:48:05;12.30;99.90
12123;DHT22;6125;59.628;17.852;2022-10-16T05:50:33;12.30;99.90
12123;DHT22;6125;59.628;17.852;2022-10-16T05:53:00;12.30;99.90
12123;DHT22;6125;59.628;17.852;2022-10-16T05:55:29;12.30;99.90
12123;DHT22;6125;59.628;17.852;2022-10-16T05:57:56;12.20;99.90
12123;DHT22;6125;59.628;17.852;2022-10-16T06:00:34;12.20;99.90
12123;DHT22;6125;59.628;17.852;2022-10-16T06:03:04;12.20;99.90
12123;DHT22;6125;59.628;17.852;2022-10-16T06:05:33;12.20;99.90
12123;DHT22;6125;59.628;17.852;2022-10-16T06:08:03;12.20;99.90
12123;DHT22;6125;59.628;17.852;2022-10-16T06:10:30;12.20;99.90
12123;DHT22;6125;59.628;17.852;2022-10-16T06:12:59;12.20;99.90
12123;DHT22;6125;59.628;17.852;2022-10-16T06:15:26;12.20;99.90
12123;DHT22;6125;59.628;17.852;2022-10-16T06:17:53;12.20;99.90
12123;DHT22;6125;59.628;17.852;2022-10-16T06:20:22;12.20;99.90
12123;DHT22;6125;59.628;17.852;2022-10-16T06:22:50;12.20;99.90
12123;DHT22;6125;59.628;17.852;2022-10-16T06:25:21;12.30;99.90
12123;DHT22;6125;59.628;17.852;2022-10-16T06:27:48;12.20;99.90
12123;DHT22;6125;59.628;17.852;2022-10-16T06:30:19;12.20;99.90
12123;DHT22;6125;59.628;17.852;2022-10-16T06:32:46;12.20;99.90
12123;DHT22;6125;59.628;17.852;2022-10-16T06:35:13;12.20;99.90
12123;DHT22;6125;59.628;17.852;2022-10-16T06:37:40;12.20;99.90
12123;DHT22;6125;59.628;17.852;2022-10-16T06:40:09;12.20;99.90
12123;DHT22;6125;59.628;17.852;2022-10-16T06:42:38;12.30;99.90
12123;DHT22;6125;59.628;17.852;2022-10-16T06:45:05;12.30;99.90
12123;DHT22;6125;59.628;17.852;2022-10-16T06:47:36;12.30;99.90
12123;DHT22;6125;59.628;17.852;2022-10-16T06:50:03;12.30;99.90
12123;DHT22;6125;59.628;17.852;2022-10-16T06:52:32;12.20;99.90
12123;DHT22;6125;59.628;17.852;2022-10-16T06:55:03;12.30;99.90
12123;DHT22;6125;59.628;17.852;2022-10-16T06:57:32;12.30;99.90
12123;DHT22;6125;59.628;17.852;2022-10-16T07:00:02;12.30;99.90
12123;DHT22;6125;59.628;17.852;2022-10-16T07:02:32;12.40;99.90
12123;DHT22;6125;59.628;17.852;2022-10-16T07:04:58;12.40;99.90
12123;DHT22;6125;59.628;17.852;2022-10-16T07:07:26;12.40;99.90
12123;DHT22;6125;59.628;17.852;2022-10-16T07:09:55;12.40;99.90
12123;DHT22;6125;59.628;17.852;2022-10-16T07:12:25;12.40;99.90
12123;DHT22;6125;59.628;17.852;2022-10-16T07:14:53;12.40;99.90
12123;DHT22;6125;59.628;17.852;2022-10-16T07:17:22;12.50;99.90
12123;DHT22;6125;59.628;17.852;2022-10-16T07:19:54;12.50;99.90
12123;DHT22;6125;59.628;17.852;2022-10-16T07:22:21;12.60;99.90
12123;DHT22;6125;59.628;17.852;2022-10-16T07:24:48;12.50;99.90
12123;DHT22;6125;59.628;17.852;2022-10-16T07:27:18;12.60;99.90
12123;DHT22;6125;59.628;17.852;2022-10-16T07:29:49;12.60;99.90
12123;DHT22;6125;59.628;17.852;2022-10-16T07:32:22;12.60;99.90
12123;DHT22;6125;59.628;17.852;2022-10-16T07:34:51;12.60;99.90
12123;DHT22;6125;59.628;17.852;2022-10-16T07:37:18;12.60;99.90
12123;DHT22;6125;59.628;17.852;2022-10-16T07:39:45;12.60;99.90
12123;DHT22;6125;59.628;17.852;2022-10-16T07:42:15;12.60;99.90
12123;DHT22;6125;59.628;17.852;2022-10-16T07:44:42;12.60;99.90
12123;DHT22;6125;59.628;17.852;2022-10-16T07:47:09;12.60;99.90
12123;DHT22;6125;59.628;17.852;2022-10-16T07:49:37;12.70;99.90
12123;DHT22;6125;59.628;17.852;2022-10-16T07:52:11;12.60;99.90
12123;DHT22;6125;59.628;17.852;2022-10-16T07:54:38;12.60;99.90
12123;DHT22;6125;59.628;17.852;2022-10-16T07:57:05;12.70;99.90
12123;DHT22;6125;59.628;17.852;2022-10-16T07:59:32;12.70;99.90
12123;DHT22;6125;59.628;17.852;2022-10-16T08:02:01;12.70;99.90
12123;DHT22;6125;59.628;17.852;2022-10-16T08:04:28;12.70;99.90
12123;DHT22;6125;59.628;17.852;2022-10-16T08:06:58;12.70;99.90
12123;DHT22;6125;59.628;17.852;2022-10-16T08:09:25;12.80;99.90
12123;DHT22;6125;59.628;17.852;2022-10-16T08:11:52;12.80;99.90
12123;DHT22;6125;59.628;17.852;2022-10-16T08:14:19;12.80;99.90
12123;DHT22;6125;59.628;17.852;2022-10-16T08:16:46;12.80;99.90
12123;DHT22;6125;59.628;17.852;2022-10-16T08:19:13;12.80;99.90
12123;DHT22;6125;59.628;17.852;2022-10-16T08:21:41;12.80;99.90
12123;DHT22;6125;59.628;17.852;2022-10-16T08:24:17;12.80;99.90
12123;DHT22;6125;59.628;17.852;2022-10-16T08:26:44;12.90;99.90
12123;DHT22;6125;59.628;17.852;2022-10-16T08:29:13;12.90;99.90
12123;DHT22;6125;59.628;17.852;2022-10-16T08:31:40;12.90;99.90
12123;DHT22;6125;59.628;17.852;2022-10-16T08:34:07;13.00;99.90
12123;DHT22;6125;59.628;17.852;2022-10-16T08:36:34;13.10;99.90
12123;DHT22;6125;59.628;17.852;2022-10-16T08:39:04;13.10;99.90
12123;DHT22;6125;59.628;17.852;2022-10-16T08:41:54;13.10;99.90
12123;DHT22;6125;59.628;17.852;2022-10-16T08:44:44;13.20;99.90
12123;DHT22;6125;59.628;17.852;2022-10-16T08:47:19;13.20;99.90
12123;DHT22;6125;59.628;17.852;2022-10-16T08:49:56;13.20;99.90
12123;DHT22;6125;59.628;17.852;2022-10-16T08:52:29;13.30;99.90
12123;DHT22;6125;59.628;17.852;2022-10-16T08:54:56;13.30;99.90
12123;DHT22;6125;59.628;17.852;2022-10-16T08:57:26;13.30;99.90
12123;DHT22;6125;59.628;17.852;2022-10-16T08:59:59;13.40;99.90
12123;DHT22;6125;59.628;17.852;2022-10-16T09:02:31;13.50;99.90
12123;DHT22;6125;59.628;17.852;2022-10-16T09:05:03;13.50;99.90
12123;DHT22;6125;59.628;17.852;2022-10-16T09:07:42;13.60;99.90
12123;DHT22;6125;59.628;17.852;2022-10-16T09:10:22;13.60;99.90
12123;DHT22;6125;59.628;17.852;2022-10-16T09:12:58;13.70;99.90
12123;DHT22;6125;59.628;17.852;2022-10-16T09:15:34;13.60;99.90
12123;DHT22;6125;59.628;17.852;2022-10-16T09:18:09;13.60;99.90
12123;DHT22;6125;59.628;17.852;2022-10-16T09:20:48;13.60;99.90
12123;DHT22;6125;59.628;17.852;2022-10-16T09:23:19;13.60;99.90
12123;DHT22;6125;59.628;17.852;2022-10-16T09:25:48;13.70;99.90
12123;DHT22;6125;59.628;17.852;2022-10-16T09:28:19;13.90;99.90
12123;DHT22;6125;59.628;17.852;2022-10-16T09:30:47;14.00;99.90
12123;DHT22;6125;59.628;17.852;2022-10-16T09:33:17;14.20;99.90
12123;DHT22;6125;59.628;17.852;2022-10-16T09:35:45;14.30;99.90
12123;DHT22;6125;59.628;17.852;2022-10-16T09:38:27;14.40;99.90
12123;DHT22;6125;59.628;17.852;2022-10-16T09:41:01;14.50;99.90
12123;DHT22;6125;59.628;17.852;2022-10-16T09:43:33;14.50;99.90
12123;DHT22;6125;59.628;17.852;2022-10-16T09:46:03;14.60;99.90
12123;DHT22;6125;59.628;17.852;2022-10-16T09:48:37;14.60;99.90
12123;DHT22;6125;59.628;17.852;2022-10-16T09:51:23;14.60;99.90
12123;DHT22;6125;59.628;17.852;2022-10-16T09:53:58;14.50;99.90
12123;DHT22;6125;59.628;17.852;2022-10-16T09:56:30;14.30;99.90
12123;DHT22;6125;59.628;17.852;2022-10-16T09:59:08;14.30;99.90
12123;DHT22;6125;59.628;17.852;2022-10-16T10:01:37;14.20;99.90
12123;DHT22;6125;59.628;17.852;2022-10-16T10:04:05;14.10;99.90
12123;DHT22;6125;59.628;17.852;2022-10-16T10:06:34;14.10;99.90
12123;DHT22;6125;59.628;17.852;2022-10-16T10:09:15;14.10;99.90
12123;DHT22;6125;59.628;17.852;2022-10-16T10:11:52;14.10;99.90
12123;DHT22;6125;59.628;17.852;2022-10-16T10:14:31;14.10;99.90
12123;DHT22;6125;59.628;17.852;2022-10-16T10:17:12;14.20;99.90
12123;DHT22;6125;59.628;17.852;2022-10-16T10:19:42;14.30;99.90
12123;DHT22;6125;59.628;17.852;2022-10-16T10:22:19;14.30;99.90
12123;DHT22;6125;59.628;17.852;2022-10-16T10:25:12;14.40;99.90
12123;DHT22;6125;59.628;17.852;2022-10-16T10:27:58;14.50;99.90
12123;DHT22;6125;59.628;17.852;2022-10-16T10:30:35;14.60;99.90
12123;DHT22;6125;59.628;17.852;2022-10-16T10:33:18;14.80;99.90
12123;DHT22;6125;59.628;17.852;2022-10-16T10:35:55;14.90;99.90
12123;DHT22;6125;59.628;17.852;2022-10-16T10:38:32;15.10;99.90
12123;DHT22;6125;59.628;17.852;2022-10-16T10:41:17;15.10;99.90
12123;DHT22;6125;59.628;17.852;2022-10-16T10:44:00;15.30;99.90
12123;DHT22;6125;59.628;17.852;2022-10-16T10:46:35;15.50;99.90
12123;DHT22;6125;59.628;17.852;2022-10-16T10:49:25;15.50;99.90
12123;DHT22;6125;59.628;17.852;2022-10-16T10:52:02;15.70;99.90
12123;DHT22;6125;59.628;17.852;2022-10-16T10:54:36;15.80;99.90
12123;DHT22;6125;59.628;17.852;2022-10-16T10:57:10;15.80;99.90
12123;DHT22;6125;59.628;17.852;2022-10-16T11:00:00;15.70;99.90
12123;DHT22;6125;59.628;17.852;2022-10-16T11:02:37;15.70;99.90
12123;DHT22;6125;59.628;17.852;2022-10-16T11:05:34;15.80;99.90
12123;DHT22;6125;59.628;17.852;2022-10-16T11:08:12;15.80;99.90
12123;DHT22;6125;59.628;17.852;2022-10-16T11:10:49;15.90;99.90
12123;DHT22;6125;59.628;17.852;2022-10-16T11:13:28;16.00;99.90
12123;DHT22;6125;59.628;17.852;2022-10-16T11:16:00;16.10;99.90
12123;DHT22;6125;59.628;17.852;2022-10-16T11:18:38;16.10;99.90
12123;DHT22;6125;59.628;17.852;2022-10-16T11:21:14;16.00;99.90
12123;DHT22;6125;59.628;17.852;2022-10-16T11:23:46;15.90;99.90
12123;DHT22;6125;59.628;17.852;2022-10-16T11:26:21;15.80;99.90
12123;DHT22;6125;59.628;17.852;2022-10-16T11:28:50;15.80;99.90
12123;DHT22;6125;59.628;17.852;2022-10-16T11:31:27;15.70;99.90
12123;DHT22;6125;59.628;17.852;2022-10-16T11:34:02;15.70;99.90
12123;DHT22;6125;59.628;17.852;2022-10-16T11:36:36;15.80;99.90
12123;DHT22;6125;59.628;17.852;2022-10-16T11:39:16;15.90;99.90
12123;DHT22;6125;59.628;17.852;2022-10-16T11:41:50;16.10;99.90
12123;DHT22;6125;59.628;17.852;2022-10-16T11:44:38;16.20;99.90
12123;DHT22;6125;59.628;17.852;2022-10-16T11:47:19;16.20;99.90
12123;DHT22;6125;59.628;17.852;2022-10-16T11:49:55;16.20;99.90
12123;DHT22;6125;59.628;17.852;2022-10-16T11:52:30;16.10;99.90
12123;DHT22;6125;59.628;17.852;2022-10-16T11:55:14;16.10;99.90
12123;DHT22;6125;59.628;17.852;2022-10-16T11:57:45;16.10;99.90
12123;DHT22;6125;59.628;17.852;2022-10-16T12:00:21;16.10;99.90
12123;DHT22;6125;59.628;17.852;2022-10-16T12:02:56;16.10;99.90
12123;DHT22;6125;59.628;17.852;2022-10-16T12:05:33;16.10;99.90
12123;DHT22;6125;59.628;17.852;2022-10-16T12:08:08;16.20;99.90
12123;DHT22;6125;59.628;17.852;2022-10-16T12:10:37;16.20;99.90
12123;DHT22;6125;59.628;17.852;2022-10-16T12:13:04;16.20;99.90
12123;DHT22;6125;59.628;17.852;2022-10-16T12:15:33;16.20;99.90
12123;DHT22;6125;59.628;17.852;2022-10-16T12:18:01;16.10;99.90
12123;DHT22;6125;59.628;17.852;2022-10-16T12:20:32;15.90;99.90
12123;DHT22;6125;59.628;17.852;2022-10-16T12:23:04;15.80;99.90
12123;DHT22;6125;59.628;17.852;2022-10-16T12:25:35;15.70;99.90
12123;DHT22;6125;59.628;17.852;2022-10-16T12:28:05;15.60;99.90
12123;DHT22;6125;59.628;17.852;2022-10-16T12:30:34;15.50;99.90
12123;DHT22;6125;59.628;17.852;2022-10-16T12:33:03;15.50;99.90
12123;DHT22;6125;59.628;17.852;2022-10-16T12:35:43;15.40;99.90
12123;DHT22;6125;59.628;17.852;2022-10-16T12:38:17;15.30;99.90
12123;DHT22;6125;59.628;17.852;2022-10-16T12:40:47;15.20;99.90
12123;DHT22;6125;59.628;17.852;2022-10-16T12:43:27;15.10;99.90
12123;DHT22;6125;59.628;17.852;2022-10-16T12:48:49;14.90;99.90
12123;DHT22;6125;59.628;17.852;2022-10-16T12:51:32;14.90;99.90
12123;DHT22;6125;59.628;17.852;2022-10-16T12:54:15;14.80;99.90
12123;DHT22;6125;59.628;17.852;2022-10-16T12:56:57;14.70;99.90
12123;DHT22;6125;59.628;17.852;2022-10-16T12:59:35;14.70;99.90
12123;DHT22;6125;59.628;17.852;2022-10-16T13:02:23;14.70;99.90
12123;DHT22;6125;59.628;17.852;2022-10-16T13:05:11;14.60;99.90
12123;DHT22;6125;59.628;17.852;2022-10-16T13:07:53;14.60;99.90
12123;DHT22;6125;59.628;17.852;2022-10-16T13:10:26;14.50;99.90
12123;DHT22;6125;59.628;17.852;2022-10-16T13:13:21;14.40;99.90
12123;DHT22;6125;59.628;17.852;2022-10-16T13:16:04;14.40;99.90
12123;DHT22;6125;59.628;17.852;2022-10-16T13:18:42;14.30;99.90
12123;DHT22;6125;59.628;17.852;2022-10-16T13:21:21;14.30;99.90
12123;DHT22;6125;59.628;17.852;2022-10-16T13:23:59;14.20;99.90
12123;DHT22;6125;59.628;17.852;2022-10-16T13:26:36;14.20;99.90
12123;DHT22;6125;59.628;17.852;2022-10-16T13:29:09;14.10;99.90
12123;DHT22;6125;59.628;17.852;2022-10-16T13:31:39;13.90;99.90
12123;DHT22;6125;59.628;17.852;2022-10-16T13:34:11;13.60;99.90
12123;DHT22;6125;59.628;17.852;2022-10-16T13:36:44;13.00;99.90
12123;DHT22;6125;59.628;17.852;2022-10-16T13:39:16;12.50;99.90
12123;DHT22;6125;59.628;17.852;2022-10-16T13:41:59;12.10;99.90
12123;DHT22;6125;59.628;17.852;2022-10-16T13:44:28;11.70;99.90
12123;DHT22;6125;59.628;17.852;2022-10-16T13:46:59;11.40;99.90
12123;DHT22;6125;59.628;17.852;2022-10-16T13:49:29;11.20;99.90
12123;DHT22;6125;59.628;17.852;2022-10-16T13:51:59;11.10;99.90
12123;DHT22;6125;59.628;17.852;2022-10-16T13:54:28;11.00;99.90
12123;DHT22;6125;59.628;17.852;2022-10-16T13:57:13;10.90;99.90
12123;DHT22;6125;59.628;17.852;2022-10-16T13:59:42;10.90;99.90
12123;DHT22;6125;59.628;17.852;2022-10-16T14:02:20;10.90;99.90
12123;DHT22;6125;59.628;17.852;2022-10-16T14:04:54;11.00;99.90
12123;DHT22;6125;59.628;17.852;2022-10-16T14:07:25;11.10;99.90
12123;DHT22;6125;59.628;17.852;2022-10-16T14:09:54;11.20;99.90
12123;DHT22;6125;59.628;17.852;2022-10-16T14:12:22;11.20;99.90
12123;DHT22;6125;59.628;17.852;2022-10-16T14:14:51;11.20;99.90
12123;DHT22;6125;59.628;17.852;2022-10-16T14:17:23;11.20;99.90
12123;DHT22;6125;59.628;17.852;2022-10-16T14:19:58;11.20;99.90
12123;DHT22;6125;59.628;17.852;2022-10-16T14:22:30;11.20;99.90
12123;DHT22;6125;59.628;17.852;2022-10-16T14:24:59;11.20;99.90
12123;DHT22;6125;59.628;17.852;2022-10-16T14:27:31;11.20;99.90
12123;DHT22;6125;59.628;17.852;2022-10-16T14:30:21;11.20;99.90
12123;DHT22;6125;59.628;17.852;2022-10-16T14:32:56;11.20;99.90
12123;DHT22;6125;59.628;17.852;2022-10-16T14:35:29;11.20;99.90
12123;DHT22;6125;59.628;17.852;2022-10-16T14:37:57;11.20;99.90
12123;DHT22;6125;59.628;17.852;2022-10-16T14:40:27;11.20;99.90
12123;DHT22;6125;59.628;17.852;2022-10-16T14:42:55;11.10;99.90
12123;DHT22;6125;59.628;17.852;2022-10-16T14:45:26;11.10;99.90
12123;DHT22;6125;59.628;17.852;2022-10-16T14:47:58;11.10;99.90
12123;DHT22;6125;59.628;17.852;2022-10-16T14:50:49;11.10;99.90
12123;DHT22;6125;59.628;17.852;2022-10-16T14:53:19;11.10;99.90
12123;DHT22;6125;59.628;17.852;2022-10-16T14:55:47;11.10;99.90
12123;DHT22;6125;59.628;17.852;2022-10-16T14:58:17;11.10;99.90
12123;DHT22;6125;59.628;17.852;2022-10-16T15:00:50;11.10;99.90
12123;DHT22;6125;59.628;17.852;2022-10-16T15:03:17;11.10;99.90
12123;DHT22;6125;59.628;17.852;2022-10-16T15:05:44;11.10;99.90
12123;DHT22;6125;59.628;17.852;2022-10-16T15:08:11;11.10;99.90
12123;DHT22;6125;59.628;17.852;2022-10-16T15:10:40;11.10;99.90
12123;DHT22;6125;59.628;17.852;2022-10-16T15:13:13;11.00;99.90
12123;DHT22;6125;59.628;17.852;2022-10-16T15:15:43;10.90;99.90
12123;DHT22;6125;59.628;17.852;2022-10-16T15:18:13;10.70;99.90
12123;DHT22;6125;59.628;17.852;2022-10-16T15:20:47;10.50;99.90
12123;DHT22;6125;59.628;17.852;2022-10-16T15:23:15;10.30;99.90
12123;DHT22;6125;59.628;17.852;2022-10-16T15:25:44;10.30;99.90
12123;DHT22;6125;59.628;17.852;2022-10-16T15:28:15;10.20;99.90
12123;DHT22;6125;59.628;17.852;2022-10-16T15:30:42;10.20;99.90
12123;DHT22;6125;59.628;17.852;2022-10-16T15:33:13;10.20;99.90
12123;DHT22;6125;59.628;17.852;2022-10-16T15:35:40;10.20;99.90
12123;DHT22;6125;59.628;17.852;2022-10-16T15:38:11;10.20;99.90
12123;DHT22;6125;59.628;17.852;2022-10-16T15:40:39;10.20;99.90
12123;DHT22;6125;59.628;17.852;2022-10-16T15:43:06;10.20;99.90
12123;DHT22;6125;59.628;17.852;2022-10-16T15:45:35;10.20;99.90
12123;DHT22;6125;59.628;17.852;2022-10-16T15:48:02;10.20;99.90
12123;DHT22;6125;59.628;17.852;2022-10-16T15:50:33;10.20;99.90
12123;DHT22;6125;59.628;17.852;2022-10-16T15:53:00;10.20;99.90
12123;DHT22;6125;59.628;17.852;2022-10-16T15:55:29;10.20;99.90
12123;DHT22;6125;59.628;17.852;2022-10-16T15:58:00;10.20;99.90
12123;DHT22;6125;59.628;17.852;2022-10-16T16:00:27;10.20;99.90
12123;DHT22;6125;59.628;17.852;2022-10-16T16:02:56;10.20;99.90
12123;DHT22;6125;59.628;17.852;2022-10-16T16:05:31;10.20;99.90
12123;DHT22;6125;59.628;17.852;2022-10-16T16:07:58;10.20;99.90